Time,TemperatureF,DewpointF,PressureIn,WindDirection,WindDirectionDegrees,WindSpeedMPH,WindSpeedGustMPH,Humidity,HourlyPrecipIn,Conditions,Clouds,dailyrainin,SolarRadiationWatts/m^2,SoftwareType,DateUTC
2013-09-24 00:01:00,40.6,31.6,25.32,South,180,1.2,0.0,70,0.00,CLR,,0.00,0.0,WeatherDisplay:10.37,2013-09-24 06:01:00,
2013-09-24 00:06:00,40.6,31.6,25.31,South,180,1.2,0.0,70,0.00,CLR,,0.00,0.0,WeatherDisplay:10.37,2013-09-24 06:06:00,
2013-09-24 00:11:00,40.6,31.6,25.31,SW,225,1.2,0.0,70,0.00,CLR,,0.00,0.0,WeatherDisplay:10.37,2013-09-24 06:11:00,
2013-09-24 00:16:00,40.8,31.8,25.31,SW,225,0.0,0.0,70,0.00,CLR,,0.00,0.0,WeatherDisplay:10.37,2013-09-24 06:16:00,
2013-09-24 00:21:00,40.8,31.8,25.31,SW,225,0.0,0.0,70,0.00,CLR,,0.00,0.0,WeatherDisplay:10.37,2013-09-24 06:21:00,
2013-09-24 00:26:00,41.0,32.0,25.30,South,180,2.3,2.3,70,0.00,CLR,,0.00,0.0,WeatherDisplay:10.37,2013-09-24 06:26:00,
2013-09-24 00:31:00,41.2,32.1,25.31,West,270,1.2,0.0,70,0.00,CLR,,0.00,0.0,WeatherDisplay:10.37,2013-09-24 06:31:00,
2013-09-24 00:36:00,41.2,32.1,25.31,West,270,0.0,0.0,70,0.00,CLR,,0.00,0.0,WeatherDisplay:10.37,2013-09-24 06:36:00,
2013-09-24 00:41:00,41.2,32.1,25.30,SE,135,0.0,0.0,70,0.00,CLR,,0.00,0.0,WeatherDisplay:10.37,2013-09-24 06:41:00,
2013-09-24 00:46:00,41.2,32.1,25.31,West,270,1.2,0.0,70,0.00,CLR,,0.00,0.0,WeatherDisplay:10.37,2013-09-24 06:46:00,
2013-09-24 00:51:00,41.2,32.5,25.31,West,270,0.0,0.0,71,0.00,CLR,,0.00,0.0,WeatherDisplay:10.37,2013-09-24 06:51:00,
2013-09-24 00:56:00,41.2,32.5,25.30,South,180,1.2,1.2,71,0.00,CLR,,0.00,0.0,WeatherDisplay:10.37,2013-09-24 06:56:00,
2013-09-24 01:01:00,41.2,32.5,25.30,SE,135,2.3,2.3,71,0.00,CLR,,0.00,0.0,WeatherDisplay:10.37,2013-09-24 07:01:00,
2013-09-24 01:06:00,41.2,32.5,25.29,SE,135,1.2,1.2,71,0.00,CLR,,0.00,0.0,WeatherDisplay:10.37,2013-09-24 07:06:00,
2013-09-24 01:11:00,41.4,32.7,25.30,SW,225,0.0,0.0,71,0.00,CLR,,0.00,0.0,WeatherDisplay:10.37,2013-09-24 07:11:00,
2013-09-24 01:16:00,41.4,32.7,25.30,North,0,0.0,0.0,71,0.00,CLR,,0.00,0.0,WeatherDisplay:10.37,2013-09-24 07:16:00,
2013-09-24 01:21:00,41.4,33.0,25.30,West,270,0.0,0.0,72,0.00,CLR,,0.00,0.0,WeatherDisplay:10.37,2013-09-24 07:21:00,
2013-09-24 01:26:00,41.4,33.0,25.31,NW,315,0.0,0.0,72,0.00,CLR,,0.00,0.0,WeatherDisplay:10.37,2013-09-24 07:26:00,
2013-09-24 01:31:00,41.4,33.0,25.31,NW,315,0.0,0.0,72,0.00,CLR,,0.00,0.0,WeatherDisplay:10.37,2013-09-24 07:31:00,
2013-09-24 01:36:00,41.4,33.4,25.31,NW,315,0.0,0.0,73,0.00,CLR,,0.00,0.0,WeatherDisplay:10.37,2013-09-24 07:36:00,
2013-09-24 01:41:00,41.4,33.4,25.31,SW,225,0.0,0.0,73,0.00,CLR,,0.00,0.0,WeatherDisplay:10.37,2013-09-24 07:41:00,
2013-09-24 01:46:00,41.2,33.2,25.31,SW,225,0.0,0.0,73,0.00,CLR,,0.00,0.0,WeatherDisplay:10.37,2013-09-24 07:46:00,
2013-09-24 01:51:00,41.2,33.2,25.31,South,180,0.0,0.0,73,0.00,CLR,,0.00,0.0,WeatherDisplay:10.37,2013-09-24 07:51:00,
2013-09-24 01:56:00,41.2,33.2,25.31,South,180,0.0,0.0,73,0.00,CLR,,0.00,0.0,WeatherDisplay:10.37,2013-09-24 07:56:00,
2013-09-24 02:01:00,41.2,33.2,25.31,SW,225,0.0,0.0,73,0.00,CLR,,0.00,0.0,WeatherDisplay:10.37,2013-09-24 08:01:00,
2013-09-24 02:06:00,41.2,33.2,25.31,SW,225,0.0,0.0,73,0.00,CLR,,0.00,0.0,WeatherDisplay:10.37,2013-09-24 08:06:00,
2013-09-24 02:11:00,41.0,33.0,25.31,West,270,0.0,0.0,73,0.00,CLR,,0.00,0.0,WeatherDisplay:10.37,2013-09-24 08:11:00,
2013-09-24 02:16:00,40.8,32.8,25.31,SW,225,0.0,0.0,73,0.00,CLR,,0.00,0.0,WeatherDisplay:10.37,2013-09-24 08:16:00,
2013-09-24 02:21:00,40.8,32.8,25.31,South,180,0.0,0.0,73,0.00,CLR,,0.00,0.0,WeatherDisplay:10.37,2013-09-24 08:21:00,
2013-09-24 02:26:00,40.6,32.7,25.31,South,180,0.0,0.0,73,0.00,CLR,,0.00,0.0,WeatherDisplay:10.37,2013-09-24 08:26:00,
2013-09-24 02:31:00,40.6,32.7,25.30,SW,225,0.0,0.0,73,0.00,CLR,,0.00,0.0,WeatherDisplay:10.37,2013-09-24 08:31:00,
2013-09-24 02:36:00,40.6,33.0,25.30,South,180,0.0,0.0,74,0.00,CLR,,0.00,0.0,WeatherDisplay:10.37,2013-09-24 08:36:00,
2013-09-24 02:41:00,40.6,33.0,25.30,South,180,0.0,0.0,74,0.00,CLR,,0.00,0.0,WeatherDisplay:10.37,2013-09-24 08:41:00,
2013-09-24 02:46:00,40.6,32.7,25.30,South,180,0.0,0.0,73,0.00,CLR,,0.00,0.0,WeatherDisplay:10.37,2013-09-24 08:46:00,
2013-09-24 02:51:00,40.6,32.7,25.31,SW,225,0.0,0.0,73,0.00,CLR,,0.00,0.0,WeatherDisplay:10.37,2013-09-24 08:51:00,
2013-09-24 02:56:00,40.6,32.7,25.31,South,180,0.0,0.0,73,0.00,CLR,,0.00,0.0,WeatherDisplay:10.37,2013-09-24 08:56:00,
2013-09-24 03:01:00,40.5,32.5,25.31,South,180,0.0,0.0,73,0.00,CLR,,0.00,0.0,WeatherDisplay:10.37,2013-09-24 09:01:00,
2013-09-24 03:06:00,40.5,32.5,25.31,South,180,0.0,0.0,73,0.00,CLR,,0.00,0.0,WeatherDisplay:10.37,2013-09-24 09:06:00,
2013-09-24 03:11:00,40.1,32.1,25.31,South,180,0.0,0.0,73,0.00,CLR,,0.00,0.0,WeatherDisplay:10.37,2013-09-24 09:11:00,
2013-09-24 03:16:00,39.9,32.0,25.30,South,180,0.0,0.0,73,0.00,CLR,,0.00,0.0,WeatherDisplay:10.37,2013-09-24 09:16:00,
2013-09-24 03:21:00,39.7,31.8,25.31,South,180,0.0,0.0,73,0.00,CLR,,0.00,0.0,WeatherDisplay:10.37,2013-09-24 09:21:00,
2013-09-24 03:26:00,39.4,31.8,25.31,South,180,0.0,0.0,74,0.00,CLR,,0.00,0.0,WeatherDisplay:10.37,2013-09-24 09:26:00,
2013-09-24 03:31:00,39.2,31.6,25.31,South,180,0.0,0.0,74,0.00,CLR,,0.00,0.0,WeatherDisplay:10.37,2013-09-24 09:31:00,
2013-09-24 03:36:00,39.2,31.6,25.30,SE,135,0.0,0.0,74,0.00,CLR,,0.00,0.0,WeatherDisplay:10.37,2013-09-24 09:36:00,
2013-09-24 03:41:00,39.4,31.8,25.30,South,180,0.0,0.0,74,0.00,CLR,,0.00,0.0,WeatherDisplay:10.37,2013-09-24 09:41:00,
2013-09-24 03:46:00,39.6,32.0,25.30,South,180,0.0,0.0,74,0.00,CLR,,0.00,0.0,WeatherDisplay:10.37,2013-09-24 09:46:00,
2013-09-24 03:51:00,39.6,32.0,25.30,South,180,0.0,0.0,74,0.00,CLR,,0.00,0.0,WeatherDisplay:10.37,2013-09-24 09:51:00,
2013-09-24 03:56:00,39.4,31.8,25.29,South,180,0.0,0.0,74,0.00,CLR,,0.00,0.0,WeatherDisplay:10.37,2013-09-24 09:56:00,
2013-09-24 04:01:00,39.4,31.4,25.30,South,180,0.0,0.0,73,0.00,CLR,,0.00,0.0,WeatherDisplay:10.37,2013-09-24 10:01:00,
2013-09-24 04:06:00,39.4,31.4,25.30,South,180,0.0,0.0,73,0.00,CLR,,0.00,0.0,WeatherDisplay:10.37,2013-09-24 10:06:00,
2013-09-24 04:11:00,39.0,31.8,25.30,South,180,0.0,0.0,75,0.00,CLR,,0.00,0.0,WeatherDisplay:10.37,2013-09-24 10:11:00,
2013-09-24 04:16:00,38.8,31.6,25.30,NW,315,0.0,0.0,75,0.00,CLR,,0.00,0.0,WeatherDisplay:10.37,2013-09-24 10:16:00,
2013-09-24 04:21:00,38.7,31.4,25.29,West,270,0.0,0.0,75,0.00,CLR,,0.00,0.0,WeatherDisplay:10.37,2013-09-24 10:21:00,
2013-09-24 04:26:00,38.1,30.9,25.30,West,270,0.0,0.0,75,0.00,CLR,,0.00,0.0,WeatherDisplay:10.37,2013-09-24 10:26:00,
2013-09-24 04:31:00,37.8,30.5,25.30,South,180,0.0,0.0,75,0.00,CLR,,0.00,0.0,WeatherDisplay:10.37,2013-09-24 10:31:00,
2013-09-24 04:36:00,37.4,30.5,25.30,South,180,0.0,0.0,76,0.00,CLR,,0.00,0.0,WeatherDisplay:10.37,2013-09-24 10:36:00,
2013-09-24 04:41:00,37.0,30.2,25.30,South,180,0.0,0.0,76,0.00,CLR,,0.00,0.0,WeatherDisplay:10.37,2013-09-24 10:41:00,
2013-09-24 04:46:00,36.9,30.0,25.30,South,180,0.0,0.0,76,0.00,CLR,,0.00,0.0,WeatherDisplay:10.37,2013-09-24 10:46:00,
2013-09-24 04:51:00,36.9,30.3,25.29,South,180,0.0,0.0,77,0.00,CLR,,0.00,0.0,WeatherDisplay:10.37,2013-09-24 10:51:00,
2013-09-24 04:56:00,36.7,30.1,25.29,South,180,0.0,0.0,77,0.00,CLR,,0.00,0.0,WeatherDisplay:10.37,2013-09-24 10:56:00,
2013-09-24 05:01:00,36.5,30.0,25.29,South,180,0.0,0.0,77,0.00,CLR,,0.00,0.0,WeatherDisplay:10.37,2013-09-24 11:01:00,
2013-09-24 05:06:00,36.5,30.0,25.29,South,180,0.0,0.0,77,0.00,CLR,,0.00,0.0,WeatherDisplay:10.37,2013-09-24 11:06:00,
2013-09-24 05:11:00,36.3,30.1,25.28,SW,225,0.0,0.0,78,0.00,CLR,,0.00,0.0,WeatherDisplay:10.37,2013-09-24 11:11:00,
2013-09-24 05:16:00,36.1,29.9,25.29,SW,225,0.0,0.0,78,0.00,CLR,,0.00,0.0,WeatherDisplay:10.37,2013-09-24 11:16:00,
2013-09-24 05:21:00,36.1,29.9,25.28,SW,225,0.0,0.0,78,0.00,CLR,,0.00,0.0,WeatherDisplay:10.37,2013-09-24 11:21:00,
2013-09-24 05:26:00,36.1,29.9,25.29,SW,225,0.0,0.0,78,0.00,CLR,,0.00,0.0,WeatherDisplay:10.37,2013-09-24 11:26:00,
2013-09-24 05:31:00,35.6,29.4,25.29,South,180,0.0,0.0,78,0.00,CLR,,0.00,0.0,WeatherDisplay:10.37,2013-09-24 11:31:00,
2013-09-24 05:36:00,35.2,29.4,25.29,South,180,0.0,0.0,79,0.00,CLR,,0.00,0.0,WeatherDisplay:10.37,2013-09-24 11:36:00,
2013-09-24 05:41:00,35.1,29.2,25.29,West,270,0.0,0.0,79,0.00,CLR,,0.00,0.0,WeatherDisplay:10.37,2013-09-24 11:41:00,
2013-09-24 05:46:00,34.7,28.9,25.28,West,270,0.0,0.0,79,0.00,CLR,,0.00,0.0,WeatherDisplay:10.37,2013-09-24 11:46:00,
2013-09-24 05:51:00,34.3,28.8,25.29,South,180,0.0,0.0,80,0.00,CLR,,0.00,0.0,WeatherDisplay:10.37,2013-09-24 11:51:00,
2013-09-24 05:56:00,34.2,28.6,25.28,South,180,0.0,0.0,80,0.00,CLR,,0.00,0.0,WeatherDisplay:10.37,2013-09-24 11:56:00,
2013-09-24 06:01:00,34.0,28.5,25.28,South,180,0.0,0.0,80,0.00,CLR,,0.00,0.0,WeatherDisplay:10.37,2013-09-24 12:01:00,
2013-09-24 06:06:00,34.0,28.5,25.28,South,180,0.0,0.0,80,0.00,CLR,,0.00,0.0,WeatherDisplay:10.37,2013-09-24 12:06:00,
2013-09-24 06:11:00,33.8,28.9,25.29,South,180,0.0,0.0,82,0.00,CLR,,0.00,0.0,WeatherDisplay:10.37,2013-09-24 12:11:00,
2013-09-24 06:16:00,34.0,29.1,25.29,South,180,0.0,0.0,82,0.00,CLR,,0.00,0.0,WeatherDisplay:10.37,2013-09-24 12:16:00,
2013-09-24 06:22:00,34.2,29.2,25.28,South,180,0.0,0.0,82,0.00,CLR,,0.00,0.0,WeatherDisplay:10.37,2013-09-24 12:22:00,
2013-09-24 06:27:00,34.2,29.2,25.28,South,180,0.0,0.0,82,0.00,CLR,,0.00,0.0,WeatherDisplay:10.37,2013-09-24 12:27:00,
2013-09-24 06:32:00,34.3,29.7,25.28,South,180,0.0,0.0,83,0.00,CLR,,0.00,0.0,WeatherDisplay:10.37,2013-09-24 12:32:00,
2013-09-24 06:37:00,34.3,29.7,25.28,South,180,0.0,0.0,83,0.00,CLR,,0.00,0.0,WeatherDisplay:10.37,2013-09-24 12:37:00,
2013-09-24 06:42:00,34.5,29.9,25.28,South,180,0.0,0.0,83,0.00,CLR,,0.00,0.0,WeatherDisplay:10.37,2013-09-24 12:42:00,
2013-09-24 06:47:00,34.7,30.1,25.27,South,180,0.0,0.0,83,0.00,CLR,,0.00,0.0,WeatherDisplay:10.37,2013-09-24 12:47:00,
2013-09-24 06:52:00,34.9,30.2,25.27,South,180,0.0,0.0,83,0.00,CLR,,0.00,0.0,WeatherDisplay:10.37,2013-09-24 12:52:00,
2013-09-24 06:57:00,35.1,30.4,25.27,NW,315,0.0,0.0,83,0.00,CLR,,0.00,0.0,WeatherDisplay:10.37,2013-09-24 12:57:00,
2013-09-24 07:02:00,35.1,30.4,25.27,SW,225,0.0,0.0,83,0.00,CLR,,0.00,0.0,WeatherDisplay:10.37,2013-09-24 13:02:00,
2013-09-24 07:07:00,35.1,30.4,25.28,SW,225,0.0,0.0,83,0.00,CLR,,0.00,0.0,WeatherDisplay:10.37,2013-09-24 13:07:00,
2013-09-24 07:12:00,34.9,30.2,25.28,South,180,0.0,0.0,83,0.00,CLR,,0.00,0.0,WeatherDisplay:10.37,2013-09-24 13:12:00,
2013-09-24 07:17:00,34.9,30.2,25.28,South,180,0.0,0.0,83,0.00,CLR,,0.00,0.0,WeatherDisplay:10.37,2013-09-24 13:17:00,
2013-09-24 07:22:00,34.9,30.2,25.27,South,180,0.0,0.0,83,0.00,CLR,,0.00,0.0,WeatherDisplay:10.37,2013-09-24 13:22:00,
2013-09-24 07:27:00,34.9,30.2,25.27,South,180,0.0,0.0,83,0.00,CLR,,0.00,0.0,WeatherDisplay:10.37,2013-09-24 13:27:00,
2013-09-24 07:32:00,35.1,30.4,25.27,South,180,0.0,0.0,83,0.00,CLR,,0.00,0.0,WeatherDisplay:10.37,2013-09-24 13:32:00,
2013-09-24 07:37:00,35.2,30.9,25.27,SW,225,0.0,0.0,84,0.00,CLR,,0.00,0.0,WeatherDisplay:10.37,2013-09-24 13:37:00,
2013-09-24 07:42:00,35.6,31.2,25.27,SW,225,0.0,0.0,84,0.00,CLR,,0.00,0.0,WeatherDisplay:10.37,2013-09-24 13:42:00,
2013-09-24 07:47:00,35.8,31.4,25.27,SW,225,0.0,0.0,84,0.00,CLR,,0.00,0.0,WeatherDisplay:10.37,2013-09-24 13:47:00,
2013-09-24 07:52:00,36.1,31.8,25.26,SW,225,0.0,0.0,84,0.00,CLR,,0.00,0.0,WeatherDisplay:10.37,2013-09-24 13:52:00,
2013-09-24 07:57:00,36.3,31.7,25.26,SW,225,0.0,0.0,83,0.00,CLR,,0.00,0.0,WeatherDisplay:10.37,2013-09-24 13:57:00,
2013-09-24 08:02:00,36.7,32.0,25.26,SW,225,0.0,0.0,83,0.00,CLR,,0.00,0.0,WeatherDisplay:10.37,2013-09-24 14:02:00,
2013-09-24 08:07:00,36.7,32.0,25.26,SW,225,0.0,0.0,83,0.00,CLR,,0.00,0.0,WeatherDisplay:10.37,2013-09-24 14:07:00,
2013-09-24 08:12:00,37.2,32.5,25.26,North,0,0.0,0.0,83,0.00,CLR,,0.00,0.0,WeatherDisplay:10.37,2013-09-24 14:12:00,
2013-09-24 08:17:00,37.2,32.5,25.26,SW,225,0.0,0.0,83,0.00,CLR,,0.00,0.0,WeatherDisplay:10.37,2013-09-24 14:17:00,
2013-09-24 08:22:00,37.6,32.6,25.26,SW,225,0.0,0.0,82,0.00,CLR,,0.00,0.0,WeatherDisplay:10.37,2013-09-24 14:22:00,
2013-09-24 08:27:00,37.9,32.9,25.26,SW,225,0.0,0.0,82,0.00,CLR,,0.00,0.0,WeatherDisplay:10.37,2013-09-24 14:27:00,
2013-09-24 08:32:00,38.5,33.5,25.26,SW,225,0.0,0.0,82,0.00,CLR,,0.00,0.0,WeatherDisplay:10.37,2013-09-24 14:32:00,
2013-09-24 08:37:00,38.8,33.8,25.25,SW,225,0.0,0.0,82,0.00,CLR,,0.00,0.0,WeatherDisplay:10.37,2013-09-24 14:37:00,
2013-09-24 08:42:00,39.2,33.9,25.25,SW,225,0.0,0.0,81,0.00,CLR,,0.00,0.0,WeatherDisplay:10.37,2013-09-24 14:42:00,
2013-09-24 08:47:00,39.7,34.1,25.25,South,180,0.0,0.0,80,0.00,CLR,,0.00,0.0,WeatherDisplay:10.37,2013-09-24 14:47:00,
2013-09-24 08:52:00,39.9,34.2,25.25,SW,225,0.0,0.0,80,0.00,CLR,,0.00,0.0,WeatherDisplay:10.37,2013-09-24 14:52:00,
2013-09-24 08:57:00,40.3,34.6,25.25,South,180,0.0,0.0,80,0.00,CLR,,0.00,0.0,WeatherDisplay:10.37,2013-09-24 14:57:00,
2013-09-24 09:02:00,40.5,34.8,25.25,South,180,0.0,0.0,80,0.00,OVC,,0.00,0.0,WeatherDisplay:10.37,2013-09-24 15:02:00,
2013-09-24 09:07:00,40.5,34.8,25.25,South,180,0.0,0.0,80,0.00,OVC,,0.00,0.0,WeatherDisplay:10.37,2013-09-24 15:07:00,
2013-09-24 09:12:00,41.2,35.5,25.25,West,270,0.0,0.0,80,0.00,OVC,,0.00,0.0,WeatherDisplay:10.37,2013-09-24 15:12:00,
2013-09-24 09:17:00,41.5,35.5,25.24,West,270,0.0,0.0,79,0.00,OVC,,0.00,0.0,WeatherDisplay:10.37,2013-09-24 15:17:00,
2013-09-24 09:22:00,41.9,35.9,25.25,SW,225,0.0,0.0,79,0.00,OVC,,0.00,0.0,WeatherDisplay:10.37,2013-09-24 15:22:00,
2013-09-24 09:27:00,42.4,36.4,25.24,NW,315,0.0,0.0,79,0.00,OVC,,0.00,0.0,WeatherDisplay:10.37,2013-09-24 15:27:00,
2013-09-24 09:32:00,43.0,36.6,25.24,WNW,292,0.0,0.0,78,0.00,OVC,,0.00,0.0,WeatherDisplay:10.37,2013-09-24 15:32:00,
2013-09-24 09:37:00,43.2,36.4,25.24,North,0,0.0,0.0,77,0.00,OVC,,0.00,0.0,WeatherDisplay:10.37,2013-09-24 15:37:00,
2013-09-24 09:42:00,43.3,36.3,25.24,North,0,0.0,0.0,76,0.00,OVC,,0.00,0.0,WeatherDisplay:10.37,2013-09-24 15:42:00,
2013-09-24 09:47:00,43.3,35.9,25.24,North,0,0.0,0.0,75,0.00,OVC,,0.00,0.0,WeatherDisplay:10.37,2013-09-24 15:47:00,
2013-09-24 09:52:00,43.5,36.1,25.25,NW,315,0.0,0.0,75,0.00,OVC,,0.00,0.0,WeatherDisplay:10.37,2013-09-24 15:52:00,
2013-09-24 09:57:00,43.5,35.8,25.24,South,180,0.0,0.0,74,0.00,OVC,,0.00,0.0,WeatherDisplay:10.37,2013-09-24 15:57:00,
2013-09-24 10:02:00,43.7,36.0,25.24,NW,315,0.0,0.0,74,0.00,OVC,,0.00,0.0,WeatherDisplay:10.37,2013-09-24 16:02:00,
2013-09-24 10:07:00,43.7,36.0,25.24,NW,315,0.0,0.0,74,0.00,OVC,,0.00,0.0,WeatherDisplay:10.37,2013-09-24 16:07:00,
2013-09-24 10:12:00,44.4,36.0,25.24,West,270,0.0,0.0,72,0.00,OVC,,0.00,0.0,WeatherDisplay:10.37,2013-09-24 16:12:00,
2013-09-24 10:17:00,44.8,36.3,25.24,South,180,0.0,0.0,72,0.00,OVC,,0.00,0.0,WeatherDisplay:10.37,2013-09-24 16:17:00,
2013-09-24 10:22:00,45.1,36.6,25.24,South,180,0.0,0.0,72,0.00,OVC,,0.00,0.0,WeatherDisplay:10.37,2013-09-24 16:22:00,
2013-09-24 10:27:00,45.5,36.6,25.24,South,180,0.0,0.0,71,0.00,OVC,,0.00,0.0,WeatherDisplay:10.37,2013-09-24 16:27:00,
2013-09-24 10:32:00,45.9,36.6,25.24,South,180,0.0,0.0,70,0.00,OVC,,0.00,0.0,WeatherDisplay:10.37,2013-09-24 16:32:00,
2013-09-24 10:37:00,46.0,36.4,25.24,NE,45,0.0,0.0,69,0.00,OVC,,0.00,0.0,WeatherDisplay:10.37,2013-09-24 16:37:00,
2013-09-24 10:42:00,46.6,35.8,25.23,North,0,0.0,0.0,66,0.00,OVC,,0.00,0.0,WeatherDisplay:10.37,2013-09-24 16:42:00,
2013-09-24 10:47:00,47.3,36.1,25.23,North,0,0.0,0.0,65,0.00,OVC,,0.00,0.0,WeatherDisplay:10.37,2013-09-24 16:47:00,
2013-09-24 10:52:00,48.0,36.4,25.23,NW,315,2.3,2.3,64,0.00,OVC,,0.00,0.0,WeatherDisplay:10.37,2013-09-24 16:52:00,
2013-09-24 10:57:00,48.9,36.9,25.22,NW,315,2.3,2.3,63,0.00,OVC,,0.00,0.0,WeatherDisplay:10.37,2013-09-24 16:57:00,
2013-09-24 11:02:00,49.6,37.1,25.23,West,270,2.3,2.3,62,0.00,OVC,,0.00,0.0,WeatherDisplay:10.37,2013-09-24 17:02:00,
2013-09-24 11:07:00,49.6,37.1,25.22,West,270,2.3,2.3,62,0.00,OVC,,0.00,0.0,WeatherDisplay:10.37,2013-09-24 17:07:00,
2013-09-24 11:12:00,50.9,36.6,25.22,North,0,3.5,3.5,58,0.00,OVC,,0.00,0.0,WeatherDisplay:10.37,2013-09-24 17:12:00,
2013-09-24 11:17:00,51.1,36.8,25.21,NE,45,2.3,2.3,58,0.00,OVC,,0.00,0.0,WeatherDisplay:10.37,2013-09-24 17:17:00,
2013-09-24 11:22:00,51.3,36.5,25.21,North,0,2.3,2.3,57,0.00,OVC,,0.00,0.0,WeatherDisplay:10.37,2013-09-24 17:22:00,
2013-09-24 11:27:00,51.3,36.5,25.21,NW,315,3.5,3.5,57,0.00,OVC,,0.00,0.0,WeatherDisplay:10.37,2013-09-24 17:27:00,
2013-09-24 11:32:00,51.6,36.4,25.21,NE,45,2.3,2.3,56,0.00,OVC,,0.00,0.0,WeatherDisplay:10.37,2013-09-24 17:32:00,
2013-09-24 11:37:00,51.6,36.4,25.22,NW,315,2.3,2.3,56,0.00,OVC,,0.00,0.0,WeatherDisplay:10.37,2013-09-24 17:37:00,
2013-09-24 11:42:00,52.0,36.8,25.21,NW,315,2.3,2.3,56,0.00,OVC,,0.00,0.0,WeatherDisplay:10.37,2013-09-24 17:42:00,
2013-09-24 11:47:00,52.2,36.5,25.21,West,270,1.2,0.0,55,0.00,OVC,,0.00,0.0,WeatherDisplay:10.37,2013-09-24 17:47:00,
2013-09-24 11:52:00,52.7,37.0,25.21,North,0,0.0,0.0,55,0.00,OVC,,0.00,0.0,WeatherDisplay:10.37,2013-09-24 17:52:00,
2013-09-24 11:57:00,52.9,37.1,25.21,NW,315,0.0,0.0,55,0.00,OVC,,0.00,0.0,WeatherDisplay:10.37,2013-09-24 17:57:00,
2013-09-24 12:02:00,53.1,37.3,25.21,NW,315,0.0,0.0,55,0.00,OVC,,0.00,0.0,WeatherDisplay:10.37,2013-09-24 18:02:00,
2013-09-24 12:07:00,53.1,37.3,25.20,NW,315,0.0,0.0,55,0.00,OVC,,0.00,0.0,WeatherDisplay:10.37,2013-09-24 18:07:00,
2013-09-24 12:12:00,54.0,38.6,25.20,NW,315,2.3,2.3,56,0.00,OVC,,0.00,0.0,WeatherDisplay:10.37,2013-09-24 18:12:00,
2013-09-24 12:17:00,54.3,38.9,25.20,NW,315,1.2,0.0,56,0.00,OVC,,0.00,0.0,WeatherDisplay:10.37,2013-09-24 18:17:00,
2013-09-24 12:22:00,55.0,38.7,25.19,North,0,3.5,3.5,54,0.00,OVC,,0.00,0.0,WeatherDisplay:10.37,2013-09-24 18:22:00,
2013-09-24 12:27:00,55.9,39.0,25.19,NE,45,3.5,3.5,53,0.00,OVC,,0.00,0.0,WeatherDisplay:10.37,2013-09-24 18:27:00,
2013-09-24 12:32:00,56.1,39.7,25.19,NE,45,2.3,0.0,54,0.00,OVC,,0.00,0.0,WeatherDisplay:10.37,2013-09-24 18:32:00,
2013-09-24 12:37:00,56.7,38.7,25.19,North,0,3.5,3.5,51,0.00,OVC,,0.00,0.0,WeatherDisplay:10.37,2013-09-24 18:37:00,
2013-09-24 12:42:00,57.4,39.4,25.19,South,180,3.5,3.5,51,0.00,OVC,,0.00,0.0,WeatherDisplay:10.37,2013-09-24 18:42:00,
2013-09-24 12:47:00,57.9,39.4,25.19,WSW,248,8.1,8.1,50,0.00,OVC,,0.00,0.0,WeatherDisplay:10.37,2013-09-24 18:47:00,
2013-09-24 12:52:00,58.1,40.1,25.18,North,0,3.5,0.0,51,0.00,OVC,,0.00,0.0,WeatherDisplay:10.37,2013-09-24 18:52:00,
2013-09-24 12:57:00,58.1,40.1,25.18,West,270,2.3,2.3,51,0.00,OVC,,0.00,0.0,WeatherDisplay:10.37,2013-09-24 18:57:00,
2013-09-24 13:02:00,57.9,39.9,25.18,SE,135,1.2,1.2,51,0.00,OVC,,0.00,0.0,WeatherDisplay:10.37,2013-09-24 19:02:00,
2013-09-24 13:07:00,57.9,39.9,25.18,SE,135,1.2,1.2,51,0.00,OVC,,0.00,0.0,WeatherDisplay:10.37,2013-09-24 19:07:00,
2013-09-24 13:12:00,57.2,40.2,25.18,SE,135,1.2,0.0,53,0.00,OVC,,0.00,0.0,WeatherDisplay:10.37,2013-09-24 19:12:00,
2013-09-24 13:17:00,56.8,40.4,25.18,SW,225,3.5,0.0,54,0.00,OVC,,0.00,0.0,WeatherDisplay:10.37,2013-09-24 19:17:00,
2013-09-24 13:22:00,55.9,41.4,25.18,SE,135,1.2,1.2,58,0.00,OVC,,0.00,0.0,WeatherDisplay:10.37,2013-09-24 19:22:00,
2013-09-24 13:27:00,55.2,41.6,25.18,SE,135,2.3,0.0,60,0.00,OVC,,0.00,0.0,WeatherDisplay:10.37,2013-09-24 19:27:00,
2013-09-24 13:32:00,54.7,42.3,25.17,SSE,158,1.2,1.2,63,0.00,OVC,,0.00,0.0,WeatherDisplay:10.37,2013-09-24 19:32:00,
2013-09-24 13:37:00,54.0,42.9,25.18,SE,135,1.2,1.2,66,0.00,OVC,,0.00,0.0,WeatherDisplay:10.37,2013-09-24 19:37:00,
2013-09-24 13:42:00,53.2,43.3,25.18,SE,135,2.3,0.0,69,0.01,RA,,0.01,0.0,WeatherDisplay:10.37,2013-09-24 19:42:00,
2013-09-24 13:47:00,52.7,43.6,25.18,South,180,1.2,1.2,71,0.01,RA,,0.01,0.0,WeatherDisplay:10.37,2013-09-24 19:47:00,
2013-09-24 13:52:00,52.2,43.4,25.18,South,180,0.0,0.0,72,0.02,RA,,0.02,0.0,WeatherDisplay:10.37,2013-09-24 19:52:00,
2013-09-24 13:57:00,51.8,43.8,25.18,South,180,0.0,0.0,74,0.04,RA,,0.04,0.0,WeatherDisplay:10.37,2013-09-24 19:57:00,
2013-09-24 14:02:00,51.6,44.0,25.17,South,180,0.0,0.0,75,0.04,RA,,0.04,0.0,WeatherDisplay:10.37,2013-09-24 20:02:00,
2013-09-24 14:07:00,51.6,44.0,25.17,South,180,0.0,0.0,75,0.04,OVC,,0.04,0.0,WeatherDisplay:10.37,2013-09-24 20:07:00,
2013-09-24 14:12:00,50.9,44.3,25.17,North,0,2.3,2.3,78,0.05,RA,,0.05,0.0,WeatherDisplay:10.37,2013-09-24 20:12:00,
2013-09-24 14:17:00,50.2,43.6,25.17,North,0,3.5,3.5,78,0.05,RA,,0.05,0.0,WeatherDisplay:10.37,2013-09-24 20:17:00,
2013-09-24 14:22:00,49.5,43.2,25.17,North,0,2.3,2.3,79,0.05,OVC,,0.05,0.0,WeatherDisplay:10.37,2013-09-24 20:22:00,
2013-09-24 14:27:00,48.4,42.5,25.17,North,0,1.2,1.2,80,0.06,RA,,0.06,0.0,WeatherDisplay:10.37,2013-09-24 20:27:00,
2013-09-24 14:32:00,47.8,42.6,25.17,WNW,292,2.3,2.3,82,0.06,RA,,0.06,0.0,WeatherDisplay:10.37,2013-09-24 20:32:00,
2013-09-24 14:37:00,47.7,42.8,25.17,North,0,2.3,2.3,83,0.07,RA,,0.07,0.0,WeatherDisplay:10.37,2013-09-24 20:37:00,
2013-09-24 14:42:00,47.5,42.9,25.17,North,0,1.2,1.2,84,0.06,RA,,0.07,0.0,WeatherDisplay:10.37,2013-09-24 20:42:00,
2013-09-24 14:47:00,47.1,42.8,25.16,North,0,2.3,2.3,85,0.06,OVC,,0.07,0.0,WeatherDisplay:10.37,2013-09-24 20:47:00,
2013-09-24 14:52:00,46.9,43.0,25.16,North,0,1.2,1.2,86,0.06,RA,,0.08,0.0,WeatherDisplay:10.37,2013-09-24 20:52:00,
2013-09-24 14:57:00,46.8,43.1,25.16,NW,315,2.3,2.3,87,0.05,RA,,0.08,0.0,WeatherDisplay:10.37,2013-09-24 20:57:00,
2013-09-24 15:02:00,46.8,43.1,25.16,NW,315,0.0,0.0,87,0.06,RA,,0.09,0.0,WeatherDisplay:10.37,2013-09-24 21:02:00,
2013-09-24 15:07:00,46.8,43.1,25.16,NW,315,0.0,0.0,87,0.06,RA,,0.09,0.0,WeatherDisplay:10.37,2013-09-24 21:07:00,
2013-09-24 15:12:00,46.6,42.9,25.16,NW,315,0.0,0.0,87,0.06,RA,,0.11,0.0,WeatherDisplay:10.37,2013-09-24 21:12:00,
2013-09-24 15:17:00,46.6,42.9,25.16,NW,315,1.2,0.0,87,0.07,RA,,0.12,0.0,WeatherDisplay:10.37,2013-09-24 21:17:00,
2013-09-24 15:22:00,46.6,43.2,25.15,NW,315,2.3,0.0,88,0.07,RA,,0.12,0.0,WeatherDisplay:10.37,2013-09-24 21:22:00,
2013-09-24 15:27:00,46.8,43.4,25.15,West,270,0.0,0.0,88,0.07,RA,,0.13,0.0,WeatherDisplay:10.37,2013-09-24 21:27:00,
2013-09-24 15:32:00,46.8,43.4,25.16,West,270,1.2,0.0,88,0.08,RA,,0.14,0.0,WeatherDisplay:10.37,2013-09-24 21:32:00,
2013-09-24 15:37:00,46.9,43.6,25.15,West,270,0.0,0.0,88,0.07,RA,,0.14,0.0,WeatherDisplay:10.37,2013-09-24 21:37:00,
2013-09-24 15:42:00,46.9,43.9,25.15,North,0,1.2,1.2,89,0.08,RA,,0.15,0.0,WeatherDisplay:10.37,2013-09-24 21:42:00,
2013-09-24 15:47:00,46.9,43.9,25.15,NW,315,0.0,0.0,89,0.08,RA,,0.15,0.0,WeatherDisplay:10.37,2013-09-24 21:47:00,
2013-09-24 15:52:00,46.9,43.9,25.14,NW,315,2.3,0.0,89,0.08,RA,,0.17,0.0,WeatherDisplay:10.37,2013-09-24 21:52:00,
2013-09-24 15:57:00,46.8,43.7,25.15,West,270,3.5,3.5,89,0.08,RA,,0.17,0.0,WeatherDisplay:10.37,2013-09-24 21:57:00,
2013-09-24 16:02:00,46.8,43.7,25.15,West,270,3.5,3.5,89,0.07,OVC,,0.17,0.0,WeatherDisplay:10.37,2013-09-24 22:02:00,
2013-09-24 16:07:00,46.8,43.7,25.15,West,270,3.5,3.5,89,0.07,OVC,,0.17,0.0,WeatherDisplay:10.37,2013-09-24 22:07:00,
2013-09-24 16:12:00,46.6,43.5,25.15,West,270,3.5,3.5,89,0.07,RA,,0.18,0.0,WeatherDisplay:10.37,2013-09-24 22:12:00,
2013-09-24 16:17:00,46.6,43.5,25.15,North,0,4.6,4.6,89,0.07,RA,,0.19,0.0,WeatherDisplay:10.37,2013-09-24 22:17:00,
2013-09-24 16:22:00,46.4,43.3,25.15,NW,315,3.5,3.5,89,0.07,RA,,0.19,0.0,WeatherDisplay:10.37,2013-09-24 22:22:00,
2013-09-24 16:27:00,46.2,43.2,25.15,West,270,3.5,3.5,89,0.07,RA,,0.20,0.0,WeatherDisplay:10.37,2013-09-24 22:27:00,
2013-09-24 16:32:00,46.0,43.0,25.15,West,270,1.2,0.0,89,0.07,RA,,0.21,0.0,WeatherDisplay:10.37,2013-09-24 22:32:00,
2013-09-24 16:37:00,45.9,42.8,25.15,West,270,1.2,0.0,89,0.08,RA,,0.22,0.0,WeatherDisplay:10.37,2013-09-24 22:37:00,
2013-09-24 16:42:00,45.9,43.1,25.15,East,90,1.6,0.0,90,0.08,RA,,0.24,0.0,WeatherDisplay:10.37,2013-09-24 22:42:00,
2013-09-24 16:47:00,45.9,43.1,25.15,West,270,2.3,0.0,90,0.09,RA,,0.25,0.0,WeatherDisplay:10.37,2013-09-24 22:47:00,
2013-09-24 16:52:00,45.7,42.9,25.15,West,270,1.2,0.0,90,0.09,RA,,0.26,0.0,WeatherDisplay:10.37,2013-09-24 22:52:00,
2013-09-24 16:57:00,45.7,43.2,25.15,NW,315,4.6,4.6,91,0.09,RA,,0.26,0.0,WeatherDisplay:10.37,2013-09-24 22:57:00,
2013-09-24 17:02:00,45.7,43.2,25.15,NW,315,1.6,0.0,91,0.11,RA,,0.27,0.0,WeatherDisplay:10.37,2013-09-24 23:02:00,
2013-09-24 17:07:00,45.7,43.2,25.15,NW,315,1.2,0.0,91,0.11,RA,,0.27,0.0,WeatherDisplay:10.37,2013-09-24 23:07:00,
2013-09-24 17:12:00,45.1,42.4,25.15,West,270,4.6,4.6,90,0.11,RA,,0.28,0.0,WeatherDisplay:10.37,2013-09-24 23:12:00,
2013-09-24 17:17:00,45.0,41.9,25.15,SW,225,4.6,4.6,89,0.11,RA,,0.31,0.0,WeatherDisplay:10.37,2013-09-24 23:17:00,
2013-09-24 17:22:00,44.6,41.6,25.15,NW,315,5.8,5.8,89,0.12,RA,,0.31,0.0,WeatherDisplay:10.37,2013-09-24 23:22:00,
2013-09-24 17:27:00,44.4,41.4,25.16,NW,315,3.5,3.5,89,0.12,RA,,0.32,0.0,WeatherDisplay:10.37,2013-09-24 23:27:00,
2013-09-24 17:32:00,44.1,41.0,25.15,NW,315,1.2,1.2,89,0.12,RA,,0.33,0.0,WeatherDisplay:10.37,2013-09-24 23:32:00,
2013-09-24 17:37:00,43.9,40.8,25.16,West,270,1.2,0.0,89,0.12,RA,,0.34,0.0,WeatherDisplay:10.37,2013-09-24 23:37:00,
2013-09-24 17:42:00,43.9,40.8,25.16,SW,225,0.0,0.0,89,0.12,RA,,0.35,0.0,WeatherDisplay:10.37,2013-09-24 23:42:00,
2013-09-24 17:47:00,43.7,41.0,25.16,South,180,0.0,0.0,90,0.13,RA,,0.37,0.0,WeatherDisplay:10.37,2013-09-24 23:47:00,
2013-09-24 17:52:00,43.5,40.8,25.16,West,270,0.0,0.0,90,0.12,RA,,0.38,0.0,WeatherDisplay:10.37,2013-09-24 23:52:00,
2013-09-24 17:57:00,43.5,40.8,25.16,SW,225,1.2,0.0,90,0.12,RA,,0.38,0.0,WeatherDisplay:10.37,2013-09-24 23:57:00,
2013-09-24 18:02:00,43.3,40.6,25.16,SW,225,1.2,0.0,90,0.12,RA,,0.39,0.0,WeatherDisplay:10.37,2013-09-25 00:02:00,
2013-09-24 18:07:00,43.3,40.6,25.15,SW,225,1.2,0.0,90,0.12,RA,,0.39,0.0,WeatherDisplay:10.37,2013-09-25 00:07:00,
2013-09-24 18:12:00,43.2,40.7,25.16,SW,225,1.2,0.0,91,0.13,RA,,0.41,0.0,WeatherDisplay:10.37,2013-09-25 00:12:00,
2013-09-24 18:17:00,43.0,40.5,25.16,SW,225,0.0,0.0,91,0.12,RA,,0.43,0.0,WeatherDisplay:10.37,2013-09-25 00:17:00,
2013-09-24 18:22:00,42.8,40.4,25.16,South,180,1.2,0.0,91,0.12,RA,,0.43,0.0,WeatherDisplay:10.37,2013-09-25 00:22:00,
2013-09-24 18:27:00,42.8,40.4,25.17,South,180,0.0,0.0,91,0.12,RA,,0.44,0.0,WeatherDisplay:10.37,2013-09-25 00:27:00,
2013-09-24 18:32:00,42.6,40.5,25.16,South,180,1.2,0.0,92,0.12,RA,,0.45,0.0,WeatherDisplay:10.37,2013-09-25 00:32:00,
2013-09-24 18:37:00,42.4,40.3,25.17,SW,225,1.2,0.0,92,0.13,RA,,0.46,0.0,WeatherDisplay:10.37,2013-09-25 00:37:00,
2013-09-24 18:42:00,42.4,40.3,25.17,South,180,2.3,0.0,92,0.13,RA,,0.48,0.0,WeatherDisplay:10.37,2013-09-25 00:42:00,
2013-09-24 18:47:00,42.3,40.1,25.17,SW,225,2.3,0.0,92,0.13,RA,,0.50,0.0,WeatherDisplay:10.37,2013-09-25 00:47:00,
2013-09-24 18:52:00,42.1,39.9,25.17,SW,225,2.3,0.0,92,0.13,RA,,0.52,0.0,WeatherDisplay:10.37,2013-09-25 00:52:00,
2013-09-24 18:57:00,41.9,39.7,25.17,SE,135,2.3,0.0,92,0.15,RA,,0.54,0.0,WeatherDisplay:10.37,2013-09-25 00:57:00,
2013-09-24 19:02:00,41.7,39.8,25.18,South,180,3.5,3.5,93,0.17,RA,,0.56,0.0,WeatherDisplay:10.37,2013-09-25 01:02:00,
2013-09-24 19:07:00,41.7,39.8,25.18,South,180,2.3,2.3,93,0.17,RA,,0.56,0.0,WeatherDisplay:10.37,2013-09-25 01:07:00,
2013-09-24 19:12:00,41.2,39.3,25.19,SE,135,1.2,0.0,93,0.20,RA,,0.60,0.0,WeatherDisplay:10.37,2013-09-25 01:12:00,
2013-09-24 19:17:00,40.6,38.5,25.18,SE,135,1.2,1.2,92,0.21,RA,,0.63,0.0,WeatherDisplay:10.37,2013-09-25 01:17:00,
2013-09-24 19:22:00,40.1,38.0,25.18,SE,135,1.2,0.0,92,0.21,RA,,0.64,0.0,WeatherDisplay:10.37,2013-09-25 01:22:00,
2013-09-24 19:27:00,39.7,37.6,25.17,SE,135,3.5,3.5,92,0.21,RA,,0.65,0.0,WeatherDisplay:10.37,2013-09-25 01:27:00,
2013-09-24 19:32:00,39.2,37.1,25.17,SE,135,3.5,3.5,92,0.21,RA,,0.66,0.0,WeatherDisplay:10.37,2013-09-25 01:32:00,
2013-09-24 19:37:00,38.8,36.7,25.16,SE,135,2.3,0.0,92,0.20,RA,,0.66,0.0,WeatherDisplay:10.37,2013-09-25 01:37:00,
2013-09-24 19:42:00,38.5,36.4,25.16,South,180,3.5,3.5,92,0.19,CLR,,0.66,0.0,WeatherDisplay:10.37,2013-09-25 01:42:00,
2013-09-24 19:47:00,38.3,36.2,25.15,SW,225,2.3,2.3,92,0.18,CLR,,0.66,0.0,WeatherDisplay:10.37,2013-09-25 01:47:00,
2013-09-24 19:52:00,38.1,36.0,25.16,SW,225,4.6,4.6,92,0.17,CLR,,0.66,0.0,WeatherDisplay:10.37,2013-09-25 01:52:00,
2013-09-24 19:57:00,37.9,36.1,25.17,South,180,2.3,2.3,93,0.13,CLR,,0.66,0.0,WeatherDisplay:10.37,2013-09-25 01:57:00,
2013-09-24 20:02:00,37.9,36.1,25.16,SE,135,1.2,0.0,93,0.12,CLR,,0.66,0.0,WeatherDisplay:10.37,2013-09-25 02:02:00,
2013-09-24 20:07:00,37.9,36.1,25.16,SE,135,1.2,0.0,93,0.11,CLR,,0.66,0.0,WeatherDisplay:10.37,2013-09-25 02:07:00,
2013-09-24 20:12:00,37.8,35.9,25.16,South,180,0.0,0.0,93,0.06,CLR,,0.66,0.0,WeatherDisplay:10.37,2013-09-25 02:12:00,
2013-09-24 20:17:00,37.8,35.9,25.14,South,180,0.0,0.0,93,0.05,CLR,,0.66,0.0,WeatherDisplay:10.37,2013-09-25 02:17:00,
2013-09-24 20:22:00,37.6,36.0,25.13,WSW,248,3.5,3.5,94,0.02,CLR,,0.66,0.0,WeatherDisplay:10.37,2013-09-25 02:22:00,
2013-09-24 20:27:00,37.6,36.0,25.14,West,270,3.5,3.5,94,0.01,CLR,,0.66,0.0,WeatherDisplay:10.37,2013-09-25 02:27:00,
2013-09-24 20:32:00,37.8,36.2,25.15,North,0,1.2,0.0,94,0.00,CLR,,0.66,0.0,WeatherDisplay:10.37,2013-09-25 02:32:00,
2013-09-24 20:37:00,37.9,36.6,25.12,SW,225,2.3,0.0,95,0.00,CLR,,0.66,0.0,WeatherDisplay:10.37,2013-09-25 02:37:00,
2013-09-24 20:42:00,37.9,36.6,25.17,West,270,3.5,0.0,95,0.00,CLR,,0.66,0.0,WeatherDisplay:10.37,2013-09-25 02:42:00,
2013-09-24 20:47:00,37.9,36.6,25.18,South,180,0.0,0.0,95,0.00,CLR,,0.66,0.0,WeatherDisplay:10.37,2013-09-25 02:47:00,
2013-09-24 20:53:00,38.1,36.8,25.18,SW,225,1.2,0.0,95,0.00,CLR,,0.66,0.0,WeatherDisplay:10.37,2013-09-25 02:53:00,
2013-09-24 20:58:00,38.1,36.8,25.19,South,180,0.0,0.0,95,0.00,CLR,,0.66,0.0,WeatherDisplay:10.37,2013-09-25 02:58:00,
2013-09-24 21:03:00,38.1,36.8,25.17,SE,135,0.0,0.0,95,0.00,CLR,,0.66,0.0,WeatherDisplay:10.37,2013-09-25 03:03:00,
2013-09-24 21:08:00,38.1,36.8,25.17,SE,135,0.0,0.0,95,0.00,CLR,,0.66,0.0,WeatherDisplay:10.37,2013-09-25 03:08:00,
2013-09-24 21:13:00,38.5,37.4,25.18,SW,225,2.3,2.3,96,0.00,CLR,,0.66,0.0,WeatherDisplay:10.37,2013-09-25 03:13:00,
2013-09-24 21:18:00,38.5,37.4,25.17,South,180,1.2,0.0,96,0.00,CLR,,0.66,0.0,WeatherDisplay:10.37,2013-09-25 03:18:00,
2013-09-24 21:23:00,38.5,37.4,25.18,SW,225,1.2,0.0,96,0.00,CLR,,0.66,0.0,WeatherDisplay:10.37,2013-09-25 03:23:00,
2013-09-24 21:28:00,38.5,37.4,25.17,NW,315,1.2,1.2,96,0.00,CLR,,0.66,0.0,WeatherDisplay:10.37,2013-09-25 03:28:00,
2013-09-24 21:33:00,38.5,37.4,25.18,SW,225,0.0,0.0,96,0.00,CLR,,0.66,0.0,WeatherDisplay:10.37,2013-09-25 03:33:00,
2013-09-24 21:38:00,38.5,37.4,25.17,SW,225,0.0,0.0,96,0.00,CLR,,0.66,0.0,WeatherDisplay:10.37,2013-09-25 03:38:00,
2013-09-24 21:43:00,38.5,37.4,25.17,SW,225,0.0,0.0,96,0.00,CLR,,0.66,0.0,WeatherDisplay:10.37,2013-09-25 03:43:00,
2013-09-24 21:48:00,38.3,37.3,25.17,West,270,0.0,0.0,96,0.00,CLR,,0.66,0.0,WeatherDisplay:10.37,2013-09-25 03:48:00,
2013-09-24 21:53:00,38.3,37.3,25.17,West,270,0.0,0.0,96,0.00,CLR,,0.66,0.0,WeatherDisplay:10.37,2013-09-25 03:53:00,
2013-09-24 21:58:00,38.1,37.1,25.17,SW,225,0.0,0.0,96,0.00,CLR,,0.66,0.0,WeatherDisplay:10.37,2013-09-25 03:58:00,
2013-09-24 22:01:00,37.9,36.9,25.17,SW,225,0.0,0.0,96,0.00,CLR,,0.66,0.0,WeatherDisplay:10.37,2013-09-25 04:01:00,
2013-09-24 22:02:00,37.9,36.9,25.18,SW,225,0.0,0.0,96,0.00,CLR,,0.66,0.0,WeatherDisplay:10.37,2013-09-25 04:02:00,
2013-09-24 22:07:00,37.8,36.7,25.17,South,180,0.0,0.0,96,0.00,CLR,,0.66,0.0,WeatherDisplay:10.37,2013-09-25 04:07:00,
2013-09-24 22:12:00,37.6,36.5,25.17,South,180,0.0,0.0,96,0.00,CLR,,0.66,0.0,WeatherDisplay:10.37,2013-09-25 04:12:00,
2013-09-24 22:17:00,37.6,36.5,25.17,SW,225,0.0,0.0,96,0.00,CLR,,0.66,0.0,WeatherDisplay:10.37,2013-09-25 04:17:00,
2013-09-24 22:22:00,37.4,36.4,25.17,SW,225,0.0,0.0,96,0.00,CLR,,0.66,0.0,WeatherDisplay:10.37,2013-09-25 04:22:00,
2013-09-24 22:27:00,37.2,36.2,25.17,SW,225,0.0,0.0,96,0.00,CLR,,0.66,0.0,WeatherDisplay:10.37,2013-09-25 04:27:00,
2013-09-24 22:32:00,37.0,36.0,25.17,SW,225,1.2,0.0,96,0.00,CLR,,0.66,0.0,WeatherDisplay:10.37,2013-09-25 04:32:00,
2013-09-24 22:37:00,37.0,36.0,25.17,SW,225,1.2,1.2,96,0.00,CLR,,0.66,0.0,WeatherDisplay:10.37,2013-09-25 04:37:00,
2013-09-24 22:42:00,37.0,36.0,25.17,SW,225,0.0,0.0,96,0.00,CLR,,0.66,0.0,WeatherDisplay:10.37,2013-09-25 04:42:00,
2013-09-24 22:47:00,37.0,36.0,25.17,SW,225,0.0,0.0,96,0.00,CLR,,0.66,0.0,WeatherDisplay:10.37,2013-09-25 04:47:00,
2013-09-24 22:52:00,37.0,36.0,25.17,South,180,1.6,0.0,96,0.00,CLR,,0.66,0.0,WeatherDisplay:10.37,2013-09-25 04:52:00,
2013-09-24 22:57:00,37.0,36.0,25.17,South,180,1.2,0.0,96,0.00,CLR,,0.66,0.0,WeatherDisplay:10.37,2013-09-25 04:57:00,
2013-09-24 23:02:00,37.0,36.0,25.17,South,180,1.2,0.0,96,0.00,CLR,,0.66,0.0,WeatherDisplay:10.37,2013-09-25 05:02:00,
2013-09-24 23:07:00,37.0,36.0,25.17,South,180,1.2,0.0,96,0.00,CLR,,0.66,0.0,WeatherDisplay:10.37,2013-09-25 05:07:00,
2013-09-24 23:12:00,37.2,36.2,25.16,South,180,0.0,0.0,96,0.00,CLR,,0.66,0.0,WeatherDisplay:10.37,2013-09-25 05:12:00,
2013-09-24 23:17:00,37.4,36.6,25.16,SW,225,1.2,0.0,97,0.00,CLR,,0.66,0.0,WeatherDisplay:10.37,2013-09-25 05:17:00,
2013-09-24 23:22:00,37.6,36.8,25.16,SW,225,0.0,0.0,97,0.00,CLR,,0.66,0.0,WeatherDisplay:10.37,2013-09-25 05:22:00,
2013-09-24 23:27:00,37.6,36.8,25.16,SW,225,0.0,0.0,97,0.00,CLR,,0.66,0.0,WeatherDisplay:10.37,2013-09-25 05:27:00,
2013-09-24 23:32:00,37.8,37.0,25.16,SW,225,0.0,0.0,97,0.00,CLR,,0.66,0.0,WeatherDisplay:10.37,2013-09-25 05:32:00,
2013-09-24 23:37:00,37.8,37.0,25.16,SW,225,0.0,0.0,97,0.00,CLR,,0.66,0.0,WeatherDisplay:10.37,2013-09-25 05:37:00,
2013-09-24 23:42:00,37.8,37.0,25.15,SW,225,0.0,0.0,97,0.00,CLR,,0.66,0.0,WeatherDisplay:10.37,2013-09-25 05:42:00,
2013-09-24 23:47:00,37.9,37.2,25.15,SW,225,0.0,0.0,97,0.00,CLR,,0.66,0.0,WeatherDisplay:10.37,2013-09-25 05:47:00,
2013-09-24 23:52:00,37.8,37.0,25.15,SW,225,0.0,0.0,97,0.00,CLR,,0.66,0.0,WeatherDisplay:10.37,2013-09-25 05:52:00,
2013-09-24 23:57:00,37.8,37.0,25.15,SW,225,0.0,0.0,97,0.00,CLR,,0.66,0.0,WeatherDisplay:10.37,2013-09-25 05:57:00,